sensor_id;sensor_type;location;lat;lon;timestamp;P1;durP1;ratioP1;P2;durP2;ratioP2
7887;SDS011;3989;48.810;9.208;2022-08-19T00:01:59;10.60;;;9.60;;
7887;SDS011;3989;48.810;9.208;2022-08-19T00:04:27;9.70;;;8.75;;
7887;SDS011;3989;48.810;9.208;2022-08-19T00:06:55;8.82;;;8.05;;
7887;SDS011;3989;48.810;9.208;2022-08-19T00:09:22;10.75;;;9.63;;
7887;SDS011;3989;48.810;9.208;2022-08-19T00:11:52;10.18;;;9.05;;
7887;SDS011;3989;48.810;9.208;2022-08-19T00:14:21;11.05;;;9.90;;
7887;SDS011;3989;48.810;9.208;2022-08-19T00:16:49;10.43;;;9.25;;
7887;SDS011;3989;48.810;9.208;2022-08-19T00:22:00;9.75;;;8.85;;
7887;SDS011;3989;48.810;9.208;2022-08-19T00:24:27;9.77;;;8.88;;
7887;SDS011;3989;48.810;9.208;2022-08-19T00:26:55;9.52;;;8.68;;
7887;SDS011;3989;48.810;9.208;2022-08-19T00:29:22;9.27;;;8.25;;
7887;SDS011;3989;48.810;9.208;2022-08-19T00:31:51;10.32;;;9.32;;
7887;SDS011;3989;48.810;9.208;2022-08-19T00:34:21;9.07;;;8.20;;
7887;SDS011;3989;48.810;9.208;2022-08-19T00:36:48;10.05;;;8.95;;
7887;SDS011;3989;48.810;9.208;2022-08-19T00:39:15;11.82;;;9.38;;
7887;SDS011;3989;48.810;9.208;2022-08-19T00:41:43;10.70;;;9.43;;
7887;SDS011;3989;48.810;9.208;2022-08-19T00:44:14;10.15;;;9.10;;
7887;SDS011;3989;48.810;9.208;2022-08-19T00:46:45;9.98;;;8.98;;
7887;SDS011;3989;48.810;9.208;2022-08-19T00:49:14;10.48;;;9.52;;
7887;SDS011;3989;48.810;9.208;2022-08-19T00:51:45;10.15;;;9.10;;
7887;SDS011;3989;48.810;9.208;2022-08-19T00:54:15;9.85;;;8.85;;
7887;SDS011;3989;48.810;9.208;2022-08-19T00:56:43;10.43;;;9.43;;
7887;SDS011;3989;48.810;9.208;2022-08-19T00:59:11;10.65;;;9.27;;
7887;SDS011;3989;48.810;9.208;2022-08-19T01:01:41;10.55;;;9.52;;
7887;SDS011;3989;48.810;9.208;2022-08-19T01:04:09;11.32;;;9.20;;
7887;SDS011;3989;48.810;9.208;2022-08-19T01:06:37;10.02;;;9.10;;
7887;SDS011;3989;48.810;9.208;2022-08-19T01:09:06;10.32;;;9.25;;
7887;SDS011;3989;48.810;9.208;2022-08-19T01:11:34;10.45;;;9.35;;
7887;SDS011;3989;48.810;9.208;2022-08-19T01:14:04;10.50;;;9.45;;
7887;SDS011;3989;48.810;9.208;2022-08-19T01:16:32;10.10;;;9.10;;
7887;SDS011;3989;48.810;9.208;2022-08-19T01:19:02;10.32;;;9.18;;
7887;SDS011;3989;48.810;9.208;2022-08-19T01:21:38;11.15;;;9.27;;
7887;SDS011;3989;48.810;9.208;2022-08-19T01:24:09;9.43;;;8.52;;
7887;SDS011;3989;48.810;9.208;2022-08-19T01:26:38;10.02;;;9.02;;
7887;SDS011;3989;48.810;9.208;2022-08-19T01:29:06;11.18;;;9.38;;
7887;SDS011;3989;48.810;9.208;2022-08-19T01:31:34;10.13;;;8.95;;
7887;SDS011;3989;48.810;9.208;2022-08-19T01:34:02;10.68;;;9.57;;
7887;SDS011;3989;48.810;9.208;2022-08-19T01:36:30;10.85;;;9.00;;
7887;SDS011;3989;48.810;9.208;2022-08-19T01:38:59;10.63;;;9.52;;
7887;SDS011;3989;48.810;9.208;2022-08-19T01:41:27;11.25;;;9.65;;
7887;SDS011;3989;48.810;9.208;2022-08-19T01:43:54;10.70;;;9.70;;
7887;SDS011;3989;48.810;9.208;2022-08-19T01:46:21;11.57;;;10.45;;
7887;SDS011;3989;48.810;9.208;2022-08-19T01:48:48;11.20;;;10.18;;
7887;SDS011;3989;48.810;9.208;2022-08-19T01:51:15;10.73;;;9.63;;
7887;SDS011;3989;48.810;9.208;2022-08-19T01:53:41;11.93;;;10.73;;
7887;SDS011;3989;48.810;9.208;2022-08-19T01:56:08;12.02;;;10.80;;
7887;SDS011;3989;48.810;9.208;2022-08-19T01:58:38;13.23;;;11.07;;
7887;SDS011;3989;48.810;9.208;2022-08-19T02:01:07;11.73;;;10.48;;
7887;SDS011;3989;48.810;9.208;2022-08-19T02:03:34;11.30;;;10.10;;
7887;SDS011;3989;48.810;9.208;2022-08-19T02:06:02;13.00;;;10.70;;
7887;SDS011;3989;48.810;9.208;2022-08-19T02:08:30;12.82;;;11.25;;
7887;SDS011;3989;48.810;9.208;2022-08-19T02:10:58;14.60;;;11.43;;
7887;SDS011;3989;48.810;9.208;2022-08-19T02:13:25;12.23;;;10.45;;
7887;SDS011;3989;48.810;9.208;2022-08-19T02:15:54;12.57;;;10.85;;
7887;SDS011;3989;48.810;9.208;2022-08-19T02:18:21;12.60;;;11.32;;
7887;SDS011;3989;48.810;9.208;2022-08-19T02:20:47;12.52;;;11.18;;
7887;SDS011;3989;48.810;9.208;2022-08-19T02:23:14;13.10;;;11.70;;
7887;SDS011;3989;48.810;9.208;2022-08-19T02:25:45;13.02;;;10.40;;
7887;SDS011;3989;48.810;9.208;2022-08-19T02:28:15;12.63;;;10.85;;
7887;SDS011;3989;48.810;9.208;2022-08-19T02:30:46;14.32;;;12.07;;
7887;SDS011;3989;48.810;9.208;2022-08-19T02:33:16;13.20;;;11.43;;
7887;SDS011;3989;48.810;9.208;2022-08-19T02:35:52;12.60;;;10.82;;
7887;SDS011;3989;48.810;9.208;2022-08-19T02:38:25;15.32;;;11.63;;
7887;SDS011;3989;48.810;9.208;2022-08-19T02:40:59;15.25;;;11.98;;
7887;SDS011;3989;48.810;9.208;2022-08-19T02:43:45;13.68;;;12.23;;
7887;SDS011;3989;48.810;9.208;2022-08-19T02:46:13;14.15;;;12.65;;
7887;SDS011;3989;48.810;9.208;2022-08-19T02:48:44;14.60;;;12.40;;
7887;SDS011;3989;48.810;9.208;2022-08-19T02:51:15;14.55;;;12.02;;
7887;SDS011;3989;48.810;9.208;2022-08-19T02:53:43;15.48;;;12.38;;
7887;SDS011;3989;48.810;9.208;2022-08-19T02:56:10;15.82;;;12.18;;
7887;SDS011;3989;48.810;9.208;2022-08-19T02:58:37;16.25;;;13.27;;
7887;SDS011;3989;48.810;9.208;2022-08-19T03:01:04;15.30;;;12.80;;
7887;SDS011;3989;48.810;9.208;2022-08-19T03:03:31;14.20;;;12.73;;
7887;SDS011;3989;48.810;9.208;2022-08-19T03:06:07;13.48;;;12.07;;
7887;SDS011;3989;48.810;9.208;2022-08-19T03:08:38;14.90;;;13.27;;
7887;SDS011;3989;48.810;9.208;2022-08-19T03:11:05;14.88;;;13.27;;
7887;SDS011;3989;48.810;9.208;2022-08-19T03:13:32;16.60;;;14.15;;
7887;SDS011;3989;48.810;9.208;2022-08-19T03:15:59;14.90;;;12.48;;
7887;SDS011;3989;48.810;9.208;2022-08-19T03:18:25;15.35;;;13.38;;
7887;SDS011;3989;48.810;9.208;2022-08-19T03:20:52;17.70;;;13.98;;
7887;SDS011;3989;48.810;9.208;2022-08-19T03:23:21;15.73;;;14.02;;
7887;SDS011;3989;48.810;9.208;2022-08-19T03:25:49;15.43;;;13.85;;
7887;SDS011;3989;48.810;9.208;2022-08-19T03:28:19;14.75;;;13.13;;
7887;SDS011;3989;48.810;9.208;2022-08-19T03:30:54;16.38;;;13.05;;
7887;SDS011;3989;48.810;9.208;2022-08-19T03:33:27;15.90;;;14.23;;
7887;SDS011;3989;48.810;9.208;2022-08-19T03:36:02;19.40;;;14.13;;
7887;SDS011;3989;48.810;9.208;2022-08-19T03:38:33;18.05;;;14.82;;
7887;SDS011;3989;48.810;9.208;2022-08-19T03:41:04;16.25;;;13.70;;
7887;SDS011;3989;48.810;9.208;2022-08-19T03:43:33;16.88;;;14.93;;
7887;SDS011;3989;48.810;9.208;2022-08-19T03:46:02;15.27;;;13.68;;
7887;SDS011;3989;48.810;9.208;2022-08-19T03:48:31;17.58;;;13.80;;
7887;SDS011;3989;48.810;9.208;2022-08-19T03:50:58;16.27;;;14.43;;
7887;SDS011;3989;48.810;9.208;2022-08-19T03:53:25;15.77;;;13.68;;
7887;SDS011;3989;48.810;9.208;2022-08-19T03:55:53;18.42;;;14.50;;
7887;SDS011;3989;48.810;9.208;2022-08-19T03:58:21;16.73;;;14.13;;
7887;SDS011;3989;48.810;9.208;2022-08-19T04:00:48;17.08;;;14.77;;
7887;SDS011;3989;48.810;9.208;2022-08-19T04:03:15;16.17;;;14.57;;
7887;SDS011;3989;48.810;9.208;2022-08-19T04:05:44;15.48;;;13.80;;
7887;SDS011;3989;48.810;9.208;2022-08-19T04:08:11;20.25;;;15.07;;
7887;SDS011;3989;48.810;9.208;2022-08-19T04:10:40;19.35;;;15.25;;
7887;SDS011;3989;48.810;9.208;2022-08-19T04:13:08;18.05;;;15.05;;
7887;SDS011;3989;48.810;9.208;2022-08-19T04:15:38;17.33;;;14.68;;
7887;SDS011;3989;48.810;9.208;2022-08-19T04:18:06;17.63;;;14.60;;
7887;SDS011;3989;48.810;9.208;2022-08-19T04:20:38;16.50;;;14.40;;
7887;SDS011;3989;48.810;9.208;2022-08-19T04:23:06;17.10;;;14.48;;
7887;SDS011;3989;48.810;9.208;2022-08-19T04:25:35;18.38;;;14.30;;
7887;SDS011;3989;48.810;9.208;2022-08-19T04:28:03;19.10;;;15.27;;
7887;SDS011;3989;48.810;9.208;2022-08-19T04:30:31;19.40;;;15.57;;
7887;SDS011;3989;48.810;9.208;2022-08-19T04:33:04;17.60;;;15.32;;
7887;SDS011;3989;48.810;9.208;2022-08-19T04:35:34;17.92;;;15.05;;
7887;SDS011;3989;48.810;9.208;2022-08-19T04:38:01;15.65;;;13.95;;
7887;SDS011;3989;48.810;9.208;2022-08-19T04:40:28;18.00;;;14.68;;
7887;SDS011;3989;48.810;9.208;2022-08-19T04:43:12;16.48;;;14.57;;
7887;SDS011;3989;48.810;9.208;2022-08-19T04:45:42;17.88;;;15.27;;
7887;SDS011;3989;48.810;9.208;2022-08-19T04:48:08;16.80;;;15.00;;
7887;SDS011;3989;48.810;9.208;2022-08-19T04:50:35;17.73;;;15.55;;
7887;SDS011;3989;48.810;9.208;2022-08-19T04:53:02;16.33;;;14.63;;
7887;SDS011;3989;48.810;9.208;2022-08-19T04:55:30;17.35;;;14.60;;
7887;SDS011;3989;48.810;9.208;2022-08-19T04:57:56;16.42;;;14.50;;
7887;SDS011;3989;48.810;9.208;2022-08-19T05:00:23;17.38;;;15.45;;
7887;SDS011;3989;48.810;9.208;2022-08-19T05:02:52;18.60;;;16.63;;
7887;SDS011;3989;48.810;9.208;2022-08-19T05:05:19;18.73;;;15.32;;
7887;SDS011;3989;48.810;9.208;2022-08-19T05:07:45;16.65;;;14.77;;
7887;SDS011;3989;48.810;9.208;2022-08-19T05:10:12;18.20;;;15.30;;
7887;SDS011;3989;48.810;9.208;2022-08-19T05:12:39;16.88;;;15.20;;
7887;SDS011;3989;48.810;9.208;2022-08-19T05:15:06;17.30;;;14.75;;
7887;SDS011;3989;48.810;9.208;2022-08-19T05:17:34;18.88;;;15.98;;
7887;SDS011;3989;48.810;9.208;2022-08-19T05:20:03;19.75;;;15.32;;
7887;SDS011;3989;48.810;9.208;2022-08-19T05:22:47;19.38;;;15.90;;
7887;SDS011;3989;48.810;9.208;2022-08-19T05:25:18;18.27;;;15.43;;
7887;SDS011;3989;48.810;9.208;2022-08-19T05:27:45;20.20;;;16.30;;
7887;SDS011;3989;48.810;9.208;2022-08-19T05:30:13;17.23;;;15.52;;
7887;SDS011;3989;48.810;9.208;2022-08-19T05:32:41;21.58;;;15.70;;
7887;SDS011;3989;48.810;9.208;2022-08-19T05:35:10;16.80;;;14.70;;
7887;SDS011;3989;48.810;9.208;2022-08-19T05:37:37;16.42;;;14.57;;
7887;SDS011;3989;48.810;9.208;2022-08-19T05:40:05;17.27;;;15.48;;
7887;SDS011;3989;48.810;9.208;2022-08-19T05:42:32;17.95;;;15.43;;
7887;SDS011;3989;48.810;9.208;2022-08-19T05:45:00;16.70;;;14.75;;
7887;SDS011;3989;48.810;9.208;2022-08-19T05:47:26;17.38;;;14.80;;
7887;SDS011;3989;48.810;9.208;2022-08-19T05:49:53;17.58;;;15.52;;
7887;SDS011;3989;48.810;9.208;2022-08-19T05:52:21;20.23;;;16.02;;
7887;SDS011;3989;48.810;9.208;2022-08-19T05:54:48;16.45;;;14.73;;
7887;SDS011;3989;48.810;9.208;2022-08-19T05:57:16;17.80;;;15.60;;
7887;SDS011;3989;48.810;9.208;2022-08-19T05:59:43;16.67;;;14.80;;
7887;SDS011;3989;48.810;9.208;2022-08-19T06:02:16;18.20;;;15.90;;
7887;SDS011;3989;48.810;9.208;2022-08-19T06:04:43;17.52;;;15.70;;
7887;SDS011;3989;48.810;9.208;2022-08-19T06:07:09;18.35;;;15.25;;
7887;SDS011;3989;48.810;9.208;2022-08-19T06:09:38;17.65;;;15.20;;
7887;SDS011;3989;48.810;9.208;2022-08-19T06:12:04;17.27;;;14.38;;
7887;SDS011;3989;48.810;9.208;2022-08-19T06:14:32;17.83;;;14.98;;
7887;SDS011;3989;48.810;9.208;2022-08-19T06:17:00;16.50;;;14.27;;
7887;SDS011;3989;48.810;9.208;2022-08-19T06:19:28;17.38;;;15.57;;
7887;SDS011;3989;48.810;9.208;2022-08-19T06:21:56;16.83;;;15.13;;
7887;SDS011;3989;48.810;9.208;2022-08-19T06:24:25;17.58;;;15.40;;
7887;SDS011;3989;48.810;9.208;2022-08-19T06:26:55;16.75;;;15.00;;
7887;SDS011;3989;48.810;9.208;2022-08-19T06:29:23;17.88;;;15.32;;
7887;SDS011;3989;48.810;9.208;2022-08-19T06:31:53;17.90;;;16.10;;
7887;SDS011;3989;48.810;9.208;2022-08-19T06:34:23;19.08;;;16.80;;
7887;SDS011;3989;48.810;9.208;2022-08-19T06:36:51;17.35;;;15.55;;
7887;SDS011;3989;48.810;9.208;2022-08-19T06:39:19;20.23;;;16.50;;
7887;SDS011;3989;48.810;9.208;2022-08-19T06:41:48;18.85;;;15.75;;
7887;SDS011;3989;48.810;9.208;2022-08-19T06:44:18;19.67;;;17.48;;
7887;SDS011;3989;48.810;9.208;2022-08-19T06:46:46;18.92;;;16.83;;
7887;SDS011;3989;48.810;9.208;2022-08-19T06:49:13;18.55;;;16.23;;
7887;SDS011;3989;48.810;9.208;2022-08-19T06:51:41;19.25;;;15.32;;
7887;SDS011;3989;48.810;9.208;2022-08-19T06:54:08;18.55;;;16.58;;
7887;SDS011;3989;48.810;9.208;2022-08-19T06:56:35;18.85;;;15.82;;
7887;SDS011;3989;48.810;9.208;2022-08-19T06:59:03;20.52;;;16.85;;
7887;SDS011;3989;48.810;9.208;2022-08-19T07:01:35;18.80;;;15.82;;
7887;SDS011;3989;48.810;9.208;2022-08-19T07:04:03;17.58;;;14.85;;
7887;SDS011;3989;48.810;9.208;2022-08-19T07:06:30;18.60;;;15.90;;
7887;SDS011;3989;48.810;9.208;2022-08-19T07:08:57;17.75;;;15.48;;
7887;SDS011;3989;48.810;9.208;2022-08-19T07:11:24;18.77;;;15.27;;
7887;SDS011;3989;48.810;9.208;2022-08-19T07:13:51;18.15;;;15.23;;
7887;SDS011;3989;48.810;9.208;2022-08-19T07:16:19;17.67;;;14.65;;
7887;SDS011;3989;48.810;9.208;2022-08-19T07:18:48;16.35;;;14.07;;
7887;SDS011;3989;48.810;9.208;2022-08-19T07:21:16;17.17;;;14.10;;
7887;SDS011;3989;48.810;9.208;2022-08-19T07:23:45;16.27;;;14.60;;
7887;SDS011;3989;48.810;9.208;2022-08-19T07:26:13;15.40;;;13.80;;
7887;SDS011;3989;48.810;9.208;2022-08-19T07:28:41;16.77;;;14.32;;
7887;SDS011;3989;48.810;9.208;2022-08-19T07:31:10;16.77;;;14.60;;
7887;SDS011;3989;48.810;9.208;2022-08-19T07:33:37;16.88;;;14.15;;
7887;SDS011;3989;48.810;9.208;2022-08-19T07:36:06;15.70;;;13.82;;
7887;SDS011;3989;48.810;9.208;2022-08-19T07:38:35;16.77;;;14.80;;
7887;SDS011;3989;48.810;9.208;2022-08-19T07:41:02;15.27;;;13.88;;
7887;SDS011;3989;48.810;9.208;2022-08-19T07:43:28;15.40;;;13.82;;
7887;SDS011;3989;48.810;9.208;2022-08-19T07:45:55;17.17;;;13.85;;
7887;SDS011;3989;48.810;9.208;2022-08-19T07:48:22;16.00;;;14.30;;
7887;SDS011;3989;48.810;9.208;2022-08-19T07:50:50;15.77;;;13.65;;
7887;SDS011;3989;48.810;9.208;2022-08-19T07:53:19;15.02;;;13.40;;
7887;SDS011;3989;48.810;9.208;2022-08-19T07:55:45;15.18;;;13.60;;
7887;SDS011;3989;48.810;9.208;2022-08-19T07:58:13;14.55;;;13.15;;
7887;SDS011;3989;48.810;9.208;2022-08-19T08:00:42;16.75;;;14.68;;
7887;SDS011;3989;48.810;9.208;2022-08-19T08:03:11;15.18;;;13.57;;
7887;SDS011;3989;48.810;9.208;2022-08-19T08:05:39;18.55;;;14.63;;
7887;SDS011;3989;48.810;9.208;2022-08-19T08:08:25;16.92;;;15.00;;
7887;SDS011;3989;48.810;9.208;2022-08-19T08:11:10;16.73;;;14.98;;
7887;SDS011;3989;48.810;9.208;2022-08-19T08:13:37;16.95;;;15.05;;
7887;SDS011;3989;48.810;9.208;2022-08-19T08:16:06;16.83;;;13.83;;
7887;SDS011;3989;48.810;9.208;2022-08-19T08:18:33;22.13;;;17.08;;
7887;SDS011;3989;48.810;9.208;2022-08-19T08:21:06;19.95;;;16.10;;
7887;SDS011;3989;48.810;9.208;2022-08-19T08:23:34;19.83;;;16.02;;
7887;SDS011;3989;48.810;9.208;2022-08-19T08:26:01;20.98;;;16.20;;
7887;SDS011;3989;48.810;9.208;2022-08-19T08:28:29;17.67;;;15.53;;
7887;SDS011;3989;48.810;9.208;2022-08-19T08:30:57;18.93;;;15.87;;
7887;SDS011;3989;48.810;9.208;2022-08-19T08:33:26;16.77;;;14.88;;
7887;SDS011;3989;48.810;9.208;2022-08-19T08:35:53;17.73;;;14.95;;
7887;SDS011;3989;48.810;9.208;2022-08-19T08:38:20;18.23;;;15.63;;
7887;SDS011;3989;48.810;9.208;2022-08-19T08:40:49;17.57;;;15.33;;
7887;SDS011;3989;48.810;9.208;2022-08-19T08:43:22;17.27;;;15.43;;
7887;SDS011;3989;48.810;9.208;2022-08-19T08:45:55;16.67;;;14.87;;
7887;SDS011;3989;48.810;9.208;2022-08-19T08:48:30;17.53;;;15.03;;
7887;SDS011;3989;48.810;9.208;2022-08-19T08:51:04;17.43;;;15.20;;
7887;SDS011;3989;48.810;9.208;2022-08-19T08:53:33;18.80;;;15.15;;
7887;SDS011;3989;48.810;9.208;2022-08-19T08:56:03;18.92;;;16.00;;
7887;SDS011;3989;48.810;9.208;2022-08-19T08:58:45;18.45;;;14.90;;
7887;SDS011;3989;48.810;9.208;2022-08-19T09:01:17;16.15;;;14.45;;
7887;SDS011;3989;48.810;9.208;2022-08-19T09:03:44;16.65;;;13.93;;
7887;SDS011;3989;48.810;9.208;2022-08-19T09:06:12;16.08;;;14.38;;
7887;SDS011;3989;48.810;9.208;2022-08-19T09:08:47;15.13;;;13.50;;
7887;SDS011;3989;48.810;9.208;2022-08-19T09:11:35;15.50;;;13.07;;
7887;SDS011;3989;48.810;9.208;2022-08-19T09:14:34;14.52;;;13.13;;
7887;SDS011;3989;48.810;9.208;2022-08-19T09:17:07;16.40;;;14.02;;
7887;SDS011;3989;48.810;9.208;2022-08-19T09:19:35;14.68;;;13.23;;
7887;SDS011;3989;48.810;9.208;2022-08-19T09:22:12;14.88;;;13.05;;
7887;SDS011;3989;48.810;9.208;2022-08-19T09:24:39;14.50;;;13.02;;
7887;SDS011;3989;48.810;9.208;2022-08-19T09:27:08;15.27;;;12.70;;
7887;SDS011;3989;48.810;9.208;2022-08-19T09:29:34;13.38;;;12.07;;
7887;SDS011;3989;48.810;9.208;2022-08-19T09:32:01;14.95;;;13.45;;
7887;SDS011;3989;48.810;9.208;2022-08-19T09:34:28;13.85;;;12.45;;
7887;SDS011;3989;48.810;9.208;2022-08-19T09:36:55;13.40;;;11.93;;
7887;SDS011;3989;48.810;9.208;2022-08-19T09:39:23;14.25;;;12.15;;
7887;SDS011;3989;48.810;9.208;2022-08-19T09:41:50;14.77;;;11.30;;
7887;SDS011;3989;48.810;9.208;2022-08-19T09:44:19;12.68;;;11.45;;
7887;SDS011;3989;48.810;9.208;2022-08-19T09:46:46;12.68;;;11.40;;
7887;SDS011;3989;48.810;9.208;2022-08-19T09:49:13;13.82;;;11.98;;
7887;SDS011;3989;48.810;9.208;2022-08-19T09:51:39;13.23;;;10.98;;
7887;SDS011;3989;48.810;9.208;2022-08-19T09:54:06;12.98;;;11.75;;
7887;SDS011;3989;48.810;9.208;2022-08-19T09:56:33;11.25;;;10.13;;
7887;SDS011;3989;48.810;9.208;2022-08-19T09:59:00;11.52;;;10.43;;
7887;SDS011;3989;48.810;9.208;2022-08-19T10:01:30;11.20;;;10.10;;
7887;SDS011;3989;48.810;9.208;2022-08-19T10:03:58;11.82;;;10.60;;
7887;SDS011;3989;48.810;9.208;2022-08-19T10:06:27;11.68;;;10.45;;
7887;SDS011;3989;48.810;9.208;2022-08-19T10:08:57;11.68;;;10.68;;
7887;SDS011;3989;48.810;9.208;2022-08-19T10:11:24;11.23;;;10.13;;
7887;SDS011;3989;48.810;9.208;2022-08-19T10:13:51;10.02;;;9.18;;
7887;SDS011;3989;48.810;9.208;2022-08-19T10:16:19;11.32;;;10.07;;
7887;SDS011;3989;48.810;9.208;2022-08-19T10:18:49;10.85;;;9.65;;
7887;SDS011;3989;48.810;9.208;2022-08-19T10:21:19;10.63;;;9.02;;
7887;SDS011;3989;48.810;9.208;2022-08-19T10:23:48;11.32;;;10.18;;
7887;SDS011;3989;48.810;9.208;2022-08-19T10:26:18;10.00;;;9.07;;
7887;SDS011;3989;48.810;9.208;2022-08-19T10:28:48;11.18;;;9.90;;
7887;SDS011;3989;48.810;9.208;2022-08-19T10:31:15;10.95;;;9.73;;
7887;SDS011;3989;48.810;9.208;2022-08-19T10:33:45;10.35;;;9.40;;
7887;SDS011;3989;48.810;9.208;2022-08-19T10:36:15;9.73;;;8.82;;
7887;SDS011;3989;48.810;9.208;2022-08-19T10:38:44;10.32;;;9.25;;
7887;SDS011;3989;48.810;9.208;2022-08-19T10:41:12;10.10;;;8.30;;
7887;SDS011;3989;48.810;9.208;2022-08-19T10:43:41;12.68;;;9.00;;
7887;SDS011;3989;48.810;9.208;2022-08-19T10:46:11;10.00;;;9.02;;
7887;SDS011;3989;48.810;9.208;2022-08-19T10:48:40;8.50;;;7.60;;
7887;SDS011;3989;48.810;9.208;2022-08-19T10:51:07;8.75;;;7.85;;
7887;SDS011;3989;48.810;9.208;2022-08-19T10:53:53;8.20;;;7.50;;
7887;SDS011;3989;48.810;9.208;2022-08-19T10:56:20;7.97;;;7.28;;
7887;SDS011;3989;48.810;9.208;2022-08-19T10:59:05;8.40;;;7.65;;
7887;SDS011;3989;48.810;9.208;2022-08-19T11:01:32;8.70;;;7.90;;
7887;SDS011;3989;48.810;9.208;2022-08-19T11:04:00;8.50;;;6.80;;
7887;SDS011;3989;48.810;9.208;2022-08-19T11:06:28;6.82;;;6.13;;
7887;SDS011;3989;48.810;9.208;2022-08-19T11:08:58;6.70;;;6.10;;
7887;SDS011;3989;48.810;9.208;2022-08-19T11:11:25;6.45;;;5.70;;
7887;SDS011;3989;48.810;9.208;2022-08-19T11:13:53;6.95;;;6.25;;
7887;SDS011;3989;48.810;9.208;2022-08-19T11:16:20;8.70;;;5.90;;
7887;SDS011;3989;48.810;9.208;2022-08-19T11:18:51;7.00;;;6.38;;
7887;SDS011;3989;48.810;9.208;2022-08-19T11:21:20;5.70;;;5.30;;
7887;SDS011;3989;48.810;9.208;2022-08-19T11:23:49;7.30;;;5.18;;
7887;SDS011;3989;48.810;9.208;2022-08-19T11:26:19;6.72;;;5.85;;
7887;SDS011;3989;48.810;9.208;2022-08-19T11:28:48;7.28;;;6.40;;
7887;SDS011;3989;48.810;9.208;2022-08-19T11:31:17;6.38;;;5.82;;
7887;SDS011;3989;48.810;9.208;2022-08-19T11:33:45;6.20;;;5.60;;
7887;SDS011;3989;48.810;9.208;2022-08-19T11:36:15;6.10;;;5.70;;
7887;SDS011;3989;48.810;9.208;2022-08-19T11:38:42;6.07;;;5.57;;
7887;SDS011;3989;48.810;9.208;2022-08-19T11:41:09;6.10;;;5.60;;
7887;SDS011;3989;48.810;9.208;2022-08-19T11:43:37;5.43;;;5.05;;
7887;SDS011;3989;48.810;9.208;2022-08-19T11:46:05;5.28;;;4.93;;
7887;SDS011;3989;48.810;9.208;2022-08-19T11:48:33;6.57;;;5.05;;
7887;SDS011;3989;48.810;9.208;2022-08-19T11:51:02;6.07;;;5.68;;
7887;SDS011;3989;48.810;9.208;2022-08-19T11:53:31;6.40;;;5.90;;
7887;SDS011;3989;48.810;9.208;2022-08-19T11:55:59;7.63;;;5.78;;
7887;SDS011;3989;48.810;9.208;2022-08-19T11:58:25;6.30;;;5.80;;
7887;SDS011;3989;48.810;9.208;2022-08-19T12:00:53;6.13;;;5.57;;
7887;SDS011;3989;48.810;9.208;2022-08-19T12:03:20;5.65;;;5.25;;
7887;SDS011;3989;48.810;9.208;2022-08-19T12:05:47;6.18;;;5.68;;
7887;SDS011;3989;48.810;9.208;2022-08-19T12:08:15;6.30;;;5.80;;
7887;SDS011;3989;48.810;9.208;2022-08-19T12:10:42;7.10;;;5.72;;
7887;SDS011;3989;48.810;9.208;2022-08-19T12:13:10;7.68;;;5.93;;
7887;SDS011;3989;48.810;9.208;2022-08-19T12:15:39;6.20;;;5.70;;
7887;SDS011;3989;48.810;9.208;2022-08-19T12:18:08;7.43;;;6.47;;
7887;SDS011;3989;48.810;9.208;2022-08-19T12:20:35;14.20;;;11.88;;
7887;SDS011;3989;48.810;9.208;2022-08-19T12:23:03;14.00;;;12.70;;
7887;SDS011;3989;48.810;9.208;2022-08-19T12:25:30;16.60;;;15.00;;
7887;SDS011;3989;48.810;9.208;2022-08-19T12:27:58;17.95;;;15.93;;
7887;SDS011;3989;48.810;9.208;2022-08-19T12:30:25;16.45;;;13.82;;
7887;SDS011;3989;48.810;9.208;2022-08-19T12:32:51;18.27;;;14.48;;
7887;SDS011;3989;48.810;9.208;2022-08-19T12:35:19;16.75;;;15.02;;
7887;SDS011;3989;48.810;9.208;2022-08-19T12:37:47;16.02;;;14.40;;
7887;SDS011;3989;48.810;9.208;2022-08-19T12:40:14;16.63;;;14.45;;
7887;SDS011;3989;48.810;9.208;2022-08-19T12:42:42;18.70;;;16.17;;
7887;SDS011;3989;48.810;9.208;2022-08-19T12:45:09;18.02;;;14.68;;
7887;SDS011;3989;48.810;9.208;2022-08-19T12:47:38;17.15;;;14.35;;
7887;SDS011;3989;48.810;9.208;2022-08-19T12:50:05;17.48;;;15.23;;
7887;SDS011;3989;48.810;9.208;2022-08-19T12:52:35;18.40;;;15.50;;
7887;SDS011;3989;48.810;9.208;2022-08-19T12:55:03;17.23;;;14.13;;
7887;SDS011;3989;48.810;9.208;2022-08-19T12:57:32;16.33;;;14.65;;
7887;SDS011;3989;48.810;9.208;2022-08-19T13:00:04;15.85;;;14.15;;
7887;SDS011;3989;48.810;9.208;2022-08-19T13:02:35;15.82;;;13.80;;
7887;SDS011;3989;48.810;9.208;2022-08-19T13:05:02;15.52;;;13.80;;
7887;SDS011;3989;48.810;9.208;2022-08-19T13:07:31;16.52;;;14.77;;
7887;SDS011;3989;48.810;9.208;2022-08-19T13:09:59;18.05;;;15.38;;
7887;SDS011;3989;48.810;9.208;2022-08-19T13:12:25;18.55;;;15.82;;
7887;SDS011;3989;48.810;9.208;2022-08-19T13:14:52;16.00;;;13.98;;
7887;SDS011;3989;48.810;9.208;2022-08-19T13:17:19;16.65;;;14.88;;
7887;SDS011;3989;48.810;9.208;2022-08-19T13:19:46;17.73;;;15.23;;
7887;SDS011;3989;48.810;9.208;2022-08-19T13:22:13;19.13;;;16.02;;
7887;SDS011;3989;48.810;9.208;2022-08-19T13:24:40;19.38;;;16.00;;
7887;SDS011;3989;48.810;9.208;2022-08-19T13:27:08;19.08;;;16.60;;
7887;SDS011;3989;48.810;9.208;2022-08-19T13:29:34;23.40;;;17.17;;
7887;SDS011;3989;48.810;9.208;2022-08-19T13:32:19;19.90;;;17.73;;
7887;SDS011;3989;48.810;9.208;2022-08-19T13:35:06;19.02;;;17.02;;
7887;SDS011;3989;48.810;9.208;2022-08-19T13:37:32;20.33;;;17.08;;
7887;SDS011;3989;48.810;9.208;2022-08-19T13:40:09;21.10;;;17.65;;
7887;SDS011;3989;48.810;9.208;2022-08-19T13:42:41;20.60;;;16.80;;
7887;SDS011;3989;48.810;9.208;2022-08-19T13:45:08;19.23;;;17.15;;
7887;SDS011;3989;48.810;9.208;2022-08-19T13:47:36;19.95;;;16.77;;
7887;SDS011;3989;48.810;9.208;2022-08-19T13:50:07;21.83;;;18.40;;
7887;SDS011;3989;48.810;9.208;2022-08-19T13:52:34;19.70;;;17.55;;
7887;SDS011;3989;48.810;9.208;2022-08-19T13:55:04;21.35;;;18.48;;
7887;SDS011;3989;48.810;9.208;2022-08-19T13:57:32;20.40;;;18.20;;
7887;SDS011;3989;48.810;9.208;2022-08-19T14:00:01;22.20;;;18.30;;
7887;SDS011;3989;48.810;9.208;2022-08-19T14:02:29;23.42;;;19.85;;
7887;SDS011;3989;48.810;9.208;2022-08-19T14:04:56;24.55;;;19.95;;
7887;SDS011;3989;48.810;9.208;2022-08-19T14:07:24;20.60;;;18.35;;
7887;SDS011;3989;48.810;9.208;2022-08-19T14:09:50;22.88;;;20.45;;
7887;SDS011;3989;48.810;9.208;2022-08-19T14:12:19;25.17;;;20.33;;
7887;SDS011;3989;48.810;9.208;2022-08-19T14:14:46;23.75;;;19.35;;
7887;SDS011;3989;48.810;9.208;2022-08-19T14:20:36;26.98;;;20.77;;
7887;SDS011;3989;48.810;9.208;2022-08-19T14:23:03;23.92;;;19.92;;
7887;SDS011;3989;48.810;9.208;2022-08-19T14:25:31;22.08;;;19.70;;
7887;SDS011;3989;48.810;9.208;2022-08-19T14:27:59;22.92;;;19.23;;
7887;SDS011;3989;48.810;9.208;2022-08-19T14:30:27;24.58;;;19.15;;
7887;SDS011;3989;48.810;9.208;2022-08-19T14:32:55;24.17;;;19.95;;
7887;SDS011;3989;48.810;9.208;2022-08-19T14:35:24;23.55;;;19.65;;
7887;SDS011;3989;48.810;9.208;2022-08-19T14:37:53;21.63;;;19.15;;
7887;SDS011;3989;48.810;9.208;2022-08-19T14:40:21;20.23;;;17.98;;
7887;SDS011;3989;48.810;9.208;2022-08-19T14:42:50;20.73;;;18.05;;
7887;SDS011;3989;48.810;9.208;2022-08-19T14:45:17;20.05;;;17.92;;
7887;SDS011;3989;48.810;9.208;2022-08-19T14:47:43;21.08;;;17.63;;
7887;SDS011;3989;48.810;9.208;2022-08-19T14:50:10;19.35;;;17.35;;
7887;SDS011;3989;48.810;9.208;2022-08-19T14:52:37;20.27;;;18.10;;
7887;SDS011;3989;48.810;9.208;2022-08-19T14:55:06;22.00;;;18.10;;
7887;SDS011;3989;48.810;9.208;2022-08-19T14:57:33;21.85;;;18.75;;
7887;SDS011;3989;48.810;9.208;2022-08-19T14:59:59;23.13;;;19.02;;
7887;SDS011;3989;48.810;9.208;2022-08-19T15:02:26;21.30;;;17.95;;
7887;SDS011;3989;48.810;9.208;2022-08-19T15:05:13;21.55;;;18.80;;
7887;SDS011;3989;48.810;9.208;2022-08-19T15:08:03;19.35;;;17.33;;
7887;SDS011;3989;48.810;9.208;2022-08-19T15:11:16;21.40;;;17.08;;